Time;durP1;ratioP1;P1;durP2;ratioP2;P2;SDS_P1;SDS_P2;PMS_P1;PMS_P2;Temp;Humidity;BMP_temperature;BMP_pressure;BME280_temperature;BME280_humidity;BME280_pressure;Samples;Min_cycle;Max_cycle;Signal;HPM_P1;HPM_P2
2022/05/26 00:01:10;;;;;;;31.55;4.70;;;13.00;99.90;;;;;;5104039;28;20020;-68
2022/05/26 00:03:39;;;;;;;29.15;4.25;;;13.00;99.90;;;;;;5103429;28;20028;-69
2022/05/26 00:06:06;;;;;;;27.35;4.53;;;13.10;99.90;;;;;;5102751;28;20039;-68
2022/05/26 00:08:33;;;;;;;30.33;4.55;;;13.10;99.90;;;;;;5085380;28;20036;-69
2022/05/26 00:11:00;;;;;;;33.10;5.15;;;13.10;99.90;;;;;;5085588;28;20330;-69
2022/05/26 00:13:26;;;;;;;39.92;4.35;;;13.20;99.90;;;;;;5102003;28;20043;-69
2022/05/26 00:15:52;;;;;;;30.38;4.40;;;13.20;99.90;;;;;;5103317;28;20079;-69
2022/05/26 00:18:18;;;;;;;30.55;5.05;;;13.30;99.90;;;;;;5100907;28;20183;-68
2022/05/26 00:20:44;;;;;;;32.97;4.68;;;13.30;99.90;;;;;;5104059;28;20031;-69
2022/05/26 00:23:10;;;;;;;29.15;5.22;;;13.30;99.90;;;;;;5107269;28;20016;-68
2022/05/26 00:25:36;;;;;;;31.17;4.43;;;13.30;99.90;;;;;;5107493;28;20092;-68
2022/05/26 00:28:03;;;;;;;31.27;5.18;;;13.30;99.90;;;;;;5106983;28;20023;-68
2022/05/26 00:30:28;;;;;;;21.02;4.55;;;13.30;99.90;;;;;;5106222;28;20055;-69
2022/05/26 00:32:54;;;;;;;28.05;4.22;;;13.30;99.90;;;;;;5107428;28;20016;-69
2022/05/26 00:35:20;;;;;;;23.60;4.40;;;13.30;99.90;;;;;;5106685;28;20326;-68
2022/05/26 00:37:46;;;;;;;32.50;5.13;;;13.20;99.90;;;;;;5105782;28;20231;-68
2022/05/26 00:40:14;;;;;;;23.50;4.00;;;13.20;99.90;;;;;;5107097;28;20031;-69
2022/05/26 00:42:40;;;;;;;28.70;4.05;;;13.20;99.90;;;;;;5106300;28;20051;-69
2022/05/26 00:45:07;;;;;;;28.50;4.40;;;13.20;99.90;;;;;;5106577;28;20062;-68
2022/05/26 00:47:35;;;;;;;27.13;4.57;;;13.20;99.90;;;;;;5088509;28;20056;-69
2022/05/26 00:50:20;;;;;;;28.30;3.90;;;13.10;99.90;;;;;;5089131;28;20028;-69
2022/05/26 00:52:58;;;;;;;26.45;4.05;;;13.10;99.90;;;;;;5074063;28;20024;-69
2022/05/26 00:55:28;;;;;;;21.63;3.45;;;13.10;99.90;;;;;;5088680;28;20031;-68
2022/05/26 00:58:16;;;;;;;26.67;4.32;;;13.10;99.90;;;;;;5105682;28;20020;-68
2022/05/26 01:00:42;;;;;;;26.08;3.72;;;13.10;99.90;;;;;;5105627;28;20176;-69
2022/05/26 01:03:19;;;;;;;26.92;3.85;;;13.10;99.90;;;;;;5106376;28;20326;-69
2022/05/26 01:06:25;;;;;;;23.13;3.92;;;13.10;99.90;;;;;;5088801;28;20077;-68
2022/05/26 01:08:57;;;;;;;29.98;3.78;;;13.00;99.90;;;;;;5094219;28;20273;-68
2022/05/26 01:11:25;;;;;;;31.52;4.82;;;13.00;99.90;;;;;;5089057;28;20024;-68
2022/05/26 01:14:15;;;;;;;23.90;4.03;;;13.00;99.90;;;;;;5088342;28;20036;-68
2022/05/26 01:17:13;;;;;;;19.98;3.30;;;13.00;99.90;;;;;;5105674;28;20087;-68
2022/05/26 01:20:17;;;;;;;26.88;4.47;;;13.00;99.90;;;;;;5105676;28;20020;-68
2022/05/26 01:23:27;;;;;;;25.73;3.17;;;13.00;99.90;;;;;;5091055;28;20032;-68
2022/05/26 01:26:32;;;;;;;19.92;2.97;;;13.00;99.90;;;;;;5080734;28;20291;-68
2022/05/26 01:29:34;;;;;;;23.20;3.60;;;13.00;99.90;;;;;;5073868;28;20056;-68
2022/05/26 01:32:13;;;;;;;23.13;3.75;;;13.00;99.90;;;;;;5084418;28;20020;-68
2022/05/26 01:35:03;;;;;;;25.05;3.65;;;12.90;99.90;;;;;;5084078;28;20062;-68
2022/05/26 01:38:08;;;;;;;29.67;4.35;;;12.90;99.90;;;;;;5084309;28;20024;-68
2022/05/26 01:40:58;;;;;;;23.83;3.42;;;12.90;99.90;;;;;;5088008;28;20079;-69
2022/05/26 01:44:03;;;;;;;28.70;3.70;;;13.00;99.90;;;;;;5084586;28;20028;-69
2022/05/26 01:46:36;;;;;;;25.17;3.78;;;13.00;99.90;;;;;;5090158;28;20068;-69
2022/05/26 01:49:30;;;;;;;27.63;3.92;;;13.00;99.90;;;;;;5106019;28;20048;-69
2022/05/26 01:52:27;;;;;;;20.80;3.42;;;12.90;99.90;;;;;;5090877;28;20026;-68
2022/05/26 01:55:17;;;;;;;33.50;3.38;;;12.90;99.90;;;;;;5104929;28;20028;-69
2022/05/26 01:58:06;;;;;;;22.95;4.10;;;12.90;99.90;;;;;;5091093;28;20024;-68
2022/05/26 02:00:32;;;;;;;25.30;3.65;;;12.90;99.90;;;;;;5104575;28;20028;-69
2022/05/26 02:03:20;;;;;;;27.33;3.47;;;12.90;99.90;;;;;;5104486;28;20054;-68
2022/05/26 02:05:54;;;;;;;29.23;3.58;;;12.90;99.90;;;;;;5104234;28;20069;-68
2022/05/26 02:08:32;;;;;;;19.70;3.78;;;12.90;99.90;;;;;;5087301;28;20334;-68
2022/05/26 02:11:11;;;;;;;22.13;3.53;;;12.90;99.90;;;;;;5105511;28;20036;-68
2022/05/26 02:13:48;;;;;;;27.85;3.70;;;12.90;99.90;;;;;;5087272;28;20299;-68
2022/05/26 02:16:22;;;;;;;24.55;3.28;;;12.90;99.90;;;;;;5105501;28;20095;-68
2022/05/26 02:19:09;;;;;;;25.33;3.85;;;12.90;99.90;;;;;;5086487;28;20046;-68
2022/05/26 02:21:43;;;;;;;32.00;3.85;;;12.90;99.90;;;;;;5104942;28;20027;-69
2022/05/26 02:24:17;;;;;;;26.50;3.70;;;12.90;99.90;;;;;;5104072;28;20210;-68
2022/05/26 02:26:43;;;;;;;24.13;4.20;;;12.90;99.90;;;;;;5104250;28;20322;-68
2022/05/26 02:31:56;;;;;;;25.10;3.00;;;12.90;99.90;;;;;;5104174;28;20226;-68
2022/05/26 02:34:23;;;;;;;26.45;3.75;;;12.90;99.90;;;;;;5104615;28;20079;-69
2022/05/26 02:36:53;;;;;;;26.05;3.92;;;12.90;99.90;;;;;;5102834;28;20031;-68
2022/05/26 02:39:19;;;;;;;28.38;4.30;;;12.90;99.90;;;;;;5086679;28;20277;-68
2022/05/26 02:41:45;;;;;;;28.15;3.72;;;12.90;99.90;;;;;;5105011;28;20066;-69
2022/05/26 02:44:11;;;;;;;30.70;4.78;;;12.90;99.90;;;;;;5104841;28;20028;-68
2022/05/26 02:46:57;;;;;;;24.73;3.35;;;12.90;99.90;;;;;;5102651;28;20203;-70
2022/05/26 02:49:59;;;;;;;25.77;3.83;;;13.00;99.90;;;;;;5104307;28;20039;-68
2022/05/26 02:52:58;;;;;;;27.87;4.13;;;13.00;99.90;;;;;;5103821;28;20099;-68
2022/05/26 02:55:41;;;;;;;30.48;3.85;;;13.10;99.90;;;;;;5091194;28;20046;-68
2022/05/26 02:58:22;;;;;;;27.80;4.32;;;13.10;99.90;;;;;;5103430;28;20020;-69
2022/05/26 03:01:18;;;;;;;32.28;4.00;;;13.10;99.90;;;;;;5104479;28;20249;-69
2022/05/26 03:04:06;;;;;;;22.10;3.78;;;13.20;99.90;;;;;;5103808;28;20020;-68
2022/05/26 03:06:40;;;;;;;30.73;4.10;;;13.20;99.90;;;;;;5086176;28;20050;-68
2022/05/26 03:09:07;;;;;;;26.77;4.20;;;13.10;99.90;;;;;;5104769;28;20323;-69
2022/05/26 03:11:46;;;;;;;33.90;4.82;;;13.20;99.90;;;;;;5104304;28;20299;-69
2022/05/26 03:14:13;;;;;;;31.50;4.32;;;13.20;99.90;;;;;;5086678;28;20020;-68
2022/05/26 03:16:40;;;;;;;27.00;3.45;;;13.20;99.90;;;;;;5102582;28;20230;-68
2022/05/26 03:19:05;;;;;;;31.13;4.18;;;13.30;99.90;;;;;;5101900;28;20028;-68
2022/05/26 03:21:31;;;;;;;30.42;4.05;;;13.30;99.90;;;;;;5103627;28;20027;-68
2022/05/26 03:23:56;;;;;;;34.90;3.97;;;13.30;99.90;;;;;;5103814;28;20269;-68
2022/05/26 03:26:22;;;;;;;21.55;3.75;;;13.30;99.90;;;;;;5102848;28;20048;-68
2022/05/26 03:28:48;;;;;;;30.98;3.20;;;13.30;99.90;;;;;;5103715;28;20036;-68
2022/05/26 03:31:13;;;;;;;28.98;3.95;;;13.40;99.90;;;;;;5085462;28;20032;-68
2022/05/26 03:41:56;;;;;;;26.05;4.10;;;13.30;99.90;;;;;;5102703;28;20016;-68
2022/05/26 03:44:24;;;;;;;29.02;3.35;;;13.20;99.90;;;;;;5103944;28;20036;-68
2022/05/26 03:46:50;;;;;;;21.35;3.45;;;13.30;99.90;;;;;;5102908;28;20055;-68
2022/05/26 03:49:16;;;;;;;23.27;4.55;;;13.30;99.90;;;;;;5103191;28;20231;-68
2022/05/26 03:51:41;;;;;;;27.45;3.72;;;13.40;99.90;;;;;;5103718;28;20062;-68
2022/05/26 03:54:07;;;;;;;28.30;3.70;;;13.50;99.90;;;;;;5102055;28;20182;-68
2022/05/26 03:56:33;;;;;;;26.17;3.17;;;13.50;99.90;;;;;;5102079;28;20128;-68
2022/05/26 03:58:58;;;;;;;28.70;3.53;;;13.60;99.90;;;;;;5102814;28;20031;-68
2022/05/26 04:01:24;;;;;;;30.27;4.03;;;13.60;99.90;;;;;;5103609;28;20020;-68
2022/05/26 04:03:50;;;;;;;27.80;3.72;;;13.70;99.90;;;;;;5102202;28;20024;-68
2022/05/26 04:06:17;;;;;;;29.70;3.67;;;13.70;99.90;;;;;;5085420;28;20207;-68
2022/05/26 04:08:42;;;;;;;17.48;2.97;;;13.70;99.90;;;;;;5085574;28;20031;-68
2022/05/26 04:11:08;;;;;;;21.45;3.75;;;13.70;99.90;;;;;;5102558;28;20036;-68
2022/05/26 04:13:34;;;;;;;24.65;3.58;;;13.80;99.90;;;;;;5085627;28;20126;-68
2022/05/26 04:16:00;;;;;;;23.55;3.33;;;13.80;99.90;;;;;;5103379;28;20079;-68
2022/05/26 04:18:26;;;;;;;19.52;3.28;;;13.80;99.90;;;;;;5103919;28;20031;-68
2022/05/26 04:20:51;;;;;;;30.27;3.63;;;13.80;99.90;;;;;;5100367;28;20092;-68
2022/05/26 04:23:17;;;;;;;30.38;3.75;;;13.80;99.90;;;;;;5085303;28;20031;-68
2022/05/26 04:25:43;;;;;;;23.75;3.50;;;13.80;99.90;;;;;;5103314;28;20345;-68
2022/05/26 04:28:08;;;;;;;19.88;2.80;;;13.80;99.90;;;;;;5085619;28;20204;-68
2022/05/26 04:30:34;;;;;;;18.92;2.97;;;13.80;99.90;;;;;;5103224;28;20333;-68
2022/05/26 04:33:00;;;;;;;22.45;3.20;;;13.80;99.90;;;;;;5085490;28;20020;-68
2022/05/26 04:35:26;;;;;;;21.20;3.28;;;13.80;99.90;;;;;;5102760;28;20079;-68
2022/05/26 04:37:51;;;;;;;20.30;2.70;;;13.80;99.90;;;;;;5103295;28;20044;-68
2022/05/26 04:40:17;;;;;;;19.60;2.60;;;13.80;99.90;;;;;;5102282;28;20354;-68
2022/05/26 04:42:43;;;;;;;18.98;2.63;;;13.80;99.90;;;;;;5101967;28;20206;-68
2022/05/26 04:45:11;;;;;;;21.25;3.67;;;13.80;99.90;;;;;;5103066;28;20020;-68
2022/05/26 04:47:37;;;;;;;20.20;2.65;;;13.90;99.90;;;;;;5102778;28;20063;-68
2022/05/26 04:50:03;;;;;;;21.25;3.35;;;13.90;99.90;;;;;;5103269;28;20303;-68
2022/05/26 04:52:29;;;;;;;19.60;2.78;;;13.90;99.90;;;;;;5103805;28;20207;-68
2022/05/26 04:54:55;;;;;;;15.02;2.22;;;13.90;99.90;;;;;;5102176;28;20024;-68
2022/05/26 04:57:24;;;;;;;20.25;2.60;;;13.90;99.90;;;;;;5102503;28;20020;-68
2022/05/26 04:59:50;;;;;;;28.63;3.17;;;13.90;99.90;;;;;;5103775;28;20035;-68
2022/05/26 05:02:18;;;;;;;17.65;2.33;;;13.90;99.90;;;;;;5068857;28;20031;-68
2022/05/26 05:04:48;;;;;;;23.88;2.90;;;14.00;99.90;;;;;;5101914;28;20088;-68
2022/05/26 05:07:15;;;;;;;19.27;2.20;;;14.00;99.90;;;;;;5103867;28;20024;-68
2022/05/26 05:09:41;;;;;;;17.38;2.60;;;14.10;99.90;;;;;;5107236;28;20065;-68
2022/05/26 05:12:11;;;;;;;13.55;2.25;;;14.10;99.90;;;;;;5106687;28;20035;-68
2022/05/26 05:14:44;;;;;;;12.15;2.30;;;14.10;99.90;;;;;;5105407;28;20024;-68
2022/05/26 05:17:11;;;;;;;14.45;2.13;;;14.00;99.90;;;;;;5088585;28;20019;-68
2022/05/26 05:19:37;;;;;;;17.77;2.60;;;14.00;99.90;;;;;;5106601;28;20059;-68
2022/05/26 05:22:17;;;;;;;15.85;2.42;;;14.00;99.90;;;;;;5104841;28;20024;-68
2022/05/26 05:24:54;;;;;;;20.13;2.75;;;14.10;99.90;;;;;;5105183;28;20020;-68
2022/05/26 05:27:44;;;;;;;13.43;2.00;;;14.10;99.90;;;;;;5106305;28;20025;-68
2022/05/26 05:30:18;;;;;;;13.75;2.00;;;14.10;99.90;;;;;;5091758;28;20058;-68
2022/05/26 05:32:48;;;;;;;17.83;2.25;;;14.20;99.90;;;;;;5105126;28;20027;-68
2022/05/26 05:35:20;;;;;;;19.48;3.13;;;14.20;99.90;;;;;;5105849;28;20023;-68
2022/05/26 05:37:46;;;;;;;18.27;2.60;;;14.30;99.90;;;;;;5106107;28;20115;-68
2022/05/26 05:40:12;;;;;;;21.48;3.33;;;14.30;99.90;;;;;;5106193;28;20088;-68
2022/05/26 05:42:39;;;;;;;18.80;2.30;;;14.30;99.90;;;;;;5106193;28;20033;-68
2022/05/26 05:45:05;;;;;;;19.60;2.50;;;14.30;99.90;;;;;;5104834;28;20016;-68
2022/05/26 05:47:31;;;;;;;19.30;3.10;;;14.30;99.90;;;;;;5104193;28;20168;-68
2022/05/26 05:49:57;;;;;;;10.75;2.35;;;14.40;99.90;;;;;;5104799;28;20015;-68
2022/05/26 05:52:23;;;;;;;18.85;2.58;;;14.30;99.90;;;;;;5120971;28;20039;-68
2022/05/26 05:54:50;;;;;;;14.95;2.20;;;14.30;99.90;;;;;;5108037;28;20306;-68
2022/05/26 05:57:16;;;;;;;15.43;2.20;;;14.40;99.90;;;;;;5106743;28;20043;-68
2022/05/26 05:59:41;;;;;;;16.42;2.05;;;14.40;99.90;;;;;;5104236;28;20019;-68
2022/05/26 06:02:08;;;;;;;13.32;2.22;;;14.50;99.90;;;;;;5105877;28;20047;-68
2022/05/26 06:04:41;;;;;;;18.98;2.78;;;14.60;99.90;;;;;;5104263;28;20016;-68
2022/05/26 06:07:12;;;;;;;15.18;2.17;;;14.60;99.90;;;;;;5105017;28;20016;-69
2022/05/26 06:09:38;;;;;;;11.35;2.35;;;14.70;99.90;;;;;;5105305;28;20016;-68
2022/05/26 06:12:04;;;;;;;15.25;2.17;;;14.80;99.90;;;;;;5087444;28;20054;-68
2022/05/26 06:14:30;;;;;;;14.93;2.40;;;14.80;99.90;;;;;;5103750;28;20242;-68
2022/05/26 06:16:55;;;;;;;14.55;1.80;;;14.90;99.90;;;;;;5105326;28;20028;-68
2022/05/26 06:19:21;;;;;;;19.25;2.35;;;14.90;99.90;;;;;;5104730;28;20256;-68
2022/05/26 06:21:47;;;;;;;14.20;2.00;;;14.80;99.90;;;;;;5103205;28;20151;-68
2022/05/26 06:24:12;;;;;;;13.30;1.95;;;14.80;99.90;;;;;;5103863;28;20296;-67
2022/05/26 06:26:38;;;;;;;8.35;1.27;;;14.90;99.90;;;;;;5083711;28;20032;-68
2022/05/26 06:37:28;;;;;;;15.18;1.77;;;14.80;99.90;;;;;;5084078;28;20223;-69
2022/05/26 06:39:55;;;;;;;16.50;2.05;;;14.80;99.90;;;;;;5084283;28;20040;-69
2022/05/26 06:42:24;;;;;;;13.25;1.77;;;14.80;99.90;;;;;;5085660;28;20032;-68
2022/05/26 06:44:50;;;;;;;7.57;1.27;;;14.90;99.90;;;;;;5084587;28;20016;-68
2022/05/26 06:47:19;;;;;;;11.88;1.60;;;14.90;99.90;;;;;;5087593;28;20056;-69
2022/05/26 06:49:45;;;;;;;11.77;1.30;;;14.90;99.90;;;;;;5106192;28;20024;-71
2022/05/26 06:52:12;;;;;;;12.55;1.48;;;15.00;99.90;;;;;;5105442;28;20059;-69
2022/05/26 06:54:41;;;;;;;8.52;1.13;;;15.10;99.90;;;;;;5093946;28;20047;-70
2022/05/26 06:57:08;;;;;;;10.02;1.88;;;15.20;99.90;;;;;;5099567;28;20042;-70
2022/05/26 06:59:34;;;;;;;10.80;1.80;;;15.20;99.90;;;;;;5119137;28;20050;-70
2022/05/26 07:02:00;;;;;;;9.40;1.35;;;15.20;99.90;;;;;;5107958;28;20032;-70
2022/05/26 07:04:26;;;;;;;9.50;1.48;;;15.20;99.90;;;;;;5109610;28;20083;-69
2022/05/26 07:06:53;;;;;;;11.43;1.75;;;15.30;99.90;;;;;;5116583;28;20048;-71
2022/05/26 07:09:21;;;;;;;12.70;1.70;;;15.30;99.90;;;;;;5118328;28;20035;-73
2022/05/26 07:11:47;;;;;;;14.40;2.00;;;15.30;99.90;;;;;;5110093;28;20024;-71
2022/05/26 07:14:14;;;;;;;14.02;1.92;;;15.30;99.90;;;;;;5103296;28;20095;-70
2022/05/26 07:16:41;;;;;;;16.58;2.10;;;15.30;99.90;;;;;;5088301;28;20310;-72
2022/05/26 07:19:07;;;;;;;15.38;1.75;;;15.30;99.90;;;;;;5093281;28;20075;-70
2022/05/26 07:21:33;;;;;;;12.93;2.33;;;15.40;99.90;;;;;;5085959;28;20034;-73
2022/05/26 07:24:00;;;;;;;21.80;2.13;;;15.40;99.90;;;;;;5075131;28;20222;-72
2022/05/26 07:26:26;;;;;;;19.10;2.80;;;15.40;99.90;;;;;;5102577;28;20022;-69
2022/05/26 07:28:52;;;;;;;16.40;2.60;;;15.40;99.90;;;;;;5096942;28;20089;-69
2022/05/26 07:31:18;;;;;;;12.85;2.05;;;15.40;99.90;;;;;;5083785;28;20016;-73
2022/05/26 07:33:44;;;;;;;16.33;2.10;;;15.30;99.90;;;;;;5083531;28;20044;-74
2022/05/26 07:41:16;;;;;;;11.00;1.70;;;15.30;99.90;;;;;;5096254;28;20026;-74
2022/05/26 07:41:44;;;;;;;18.25;2.58;;;15.20;99.90;;;;;;5102423;28;20040;-73
2022/05/26 07:44:10;;;;;;;22.27;5.07;;;15.30;99.90;;;;;;5079293;28;20024;-72
2022/05/26 07:46:35;;;;;;;17.17;2.25;;;15.40;99.90;;;;;;5090674;28;20016;-72
2022/05/26 07:49:05;;;;;;;11.07;2.15;;;15.50;99.90;;;;;;5101532;28;20048;-71
2022/05/26 07:51:31;;;;;;;16.88;2.20;;;15.60;99.90;;;;;;5102848;28;20023;-75
2022/05/26 07:54:00;;;;;;;14.40;3.13;;;15.50;99.90;;;;;;5098665;28;20020;-75
2022/05/26 07:56:29;;;;;;;13.35;1.77;;;15.40;99.90;;;;;;5085870;28;20027;-74
2022/05/26 07:58:55;;;;;;;13.57;2.05;;;15.40;99.90;;;;;;5068117;28;20072;-70
2022/05/26 08:01:20;;;;;;;14.07;2.13;;;15.50;99.90;;;;;;5094976;28;20075;-70
2022/05/26 08:03:46;;;;;;;17.67;2.30;;;15.60;99.90;;;;;;5084471;28;20211;-70
2022/05/26 08:06:13;;;;;;;10.77;2.00;;;15.60;99.90;;;;;;5065404;28;20052;-69
2022/05/26 08:08:40;;;;;;;15.32;1.80;;;15.70;99.90;;;;;;5097482;28;20054;-71
2022/05/26 08:11:05;;;;;;;13.65;2.95;;;15.80;99.90;;;;;;5100767;28;20027;-70
2022/05/26 08:13:34;;;;;;;14.43;2.33;;;15.90;99.90;;;;;;5084604;28;20026;-70
2022/05/26 08:16:00;;;;;;;17.98;2.38;;;16.00;99.90;;;;;;5099793;28;20055;-73
2022/05/26 08:18:27;;;;;;;11.65;1.80;;;16.00;99.90;;;;;;5098209;28;20021;-73
2022/05/26 08:20:53;;;;;;;12.18;2.58;;;16.10;99.90;;;;;;5081269;28;20040;-75
2022/05/26 08:23:23;;;;;;;8.85;2.40;;;16.10;99.90;;;;;;5080764;28;20051;-70
2022/05/26 08:25:48;;;;;;;11.38;1.98;;;16.10;99.90;;;;;;5082684;28;20258;-72
2022/05/26 08:28:14;;;;;;;15.93;2.05;;;16.20;99.90;;;;;;5084055;28;20034;-70
2022/05/26 08:30:40;;;;;;;12.90;2.22;;;16.10;99.90;;;;;;5102771;28;20038;-71
2022/05/26 08:33:05;;;;;;;16.17;2.05;;;16.00;99.90;;;;;;5099125;28;20026;-72
2022/05/26 08:35:31;;;;;;;11.70;2.10;;;16.10;99.90;;;;;;5100766;28;20208;-71
2022/05/26 08:37:57;;;;;;;10.90;2.10;;;16.30;99.90;;;;;;5102559;28;20028;-72
2022/05/26 08:40:33;;;;;;;14.55;2.38;;;16.50;99.90;;;;;;5102231;28;20033;-73
2022/05/26 08:43:02;;;;;;;19.27;3.08;;;16.60;99.90;;;;;;5106386;28;20032;-72
2022/05/26 08:45:32;;;;;;;14.70;2.25;;;16.70;99.90;;;;;;5105968;28;20016;-72
2022/05/26 08:47:58;;;;;;;10.52;1.95;;;16.80;99.90;;;;;;5084115;28;20051;-70
2022/05/26 08:50:27;;;;;;;15.45;2.17;;;17.10;99.90;;;;;;5085349;28;20043;-72
2022/05/26 08:53:15;;;;;;;14.88;2.03;;;17.20;99.90;;;;;;5084804;28;20204;-69
2022/05/26 08:55:47;;;;;;;19.65;2.95;;;17.30;99.90;;;;;;5088521;28;20165;-70
2022/05/26 08:58:30;;;;;;;12.77;2.00;;;17.40;99.90;;;;;;5069106;28;20047;-71
2022/05/26 09:00:57;;;;;;;14.48;2.00;;;17.30;99.90;;;;;;5086141;28;20121;-69
2022/05/26 09:03:27;;;;;;;13.88;2.63;;;17.30;99.90;;;;;;5087196;28;20322;-70
2022/05/26 09:06:11;;;;;;;14.35;2.75;;;17.20;99.90;;;;;;5104049;28;20256;-69
2022/05/26 09:14:38;;;;;;;15.13;2.35;;;17.50;99.60;;;;;;5104496;28;20086;-70
2022/05/26 09:17:10;;;;;;;15.57;2.40;;;17.50;99.60;;;;;;5084618;28;20032;-71
2022/05/26 09:19:53;;;;;;;12.20;2.28;;;17.50;99.80;;;;;;5095135;28;20034;-71
2022/05/26 09:22:45;;;;;;;10.80;2.22;;;17.50;99.80;;;;;;5084842;28;20028;-70
2022/05/26 09:25:31;;;;;;;14.10;2.67;;;17.60;99.60;;;;;;5082898;28;20038;-73
2022/05/26 09:27:57;;;;;;;16.63;2.83;;;17.70;99.80;;;;;;5104013;28;20137;-69
2022/05/26 09:30:28;;;;;;;16.02;2.22;;;17.90;99.70;;;;;;5100738;28;20307;-70
2022/05/26 09:32:55;;;;;;;15.70;3.10;;;17.90;98.90;;;;;;5091199;28;20074;-70
2022/05/26 09:35:30;;;;;;;12.82;2.15;;;17.70;99.10;;;;;;5092843;28;20081;-71
2022/05/26 09:38:01;;;;;;;11.57;1.95;;;17.80;99.30;;;;;;5095509;28;20035;-69
2022/05/26 09:40:37;;;;;;;10.35;2.33;;;17.80;99.20;;;;;;5094421;28;20016;-72
2022/05/26 09:43:08;;;;;;;14.75;2.20;;;17.90;98.80;;;;;;5079417;28;20024;-71
2022/05/26 09:45:42;;;;;;;13.98;2.40;;;17.90;98.80;;;;;;5102735;28;20083;-71
2022/05/26 09:48:27;;;;;;;14.25;2.13;;;17.90;98.60;;;;;;5104132;28;20063;-72
2022/05/26 09:51:20;;;;;;;10.02;1.90;;;18.00;98.20;;;;;;5104033;28;20256;-72
2022/05/26 09:53:46;;;;;;;16.08;2.20;;;18.10;98.10;;;;;;5103369;28;20012;-72
2022/05/26 09:56:27;;;;;;;15.05;2.30;;;18.20;97.80;;;;;;5093117;28;20025;-72
2022/05/26 09:58:52;;;;;;;7.05;1.60;;;18.20;97.50;;;;;;5084933;28;20063;-72
2022/05/26 10:01:38;;;;;;;13.50;2.15;;;18.10;97.60;;;;;;5083252;28;20028;-70
2022/05/26 10:04:47;;;;;;;11.30;2.17;;;18.10;97.40;;;;;;5084652;28;20020;-71
2022/05/26 10:07:25;;;;;;;8.38;1.88;;;18.20;97.50;;;;;;5087240;28;20303;-71
2022/05/26 10:10:17;;;;;;;11.10;2.08;;;18.20;96.90;;;;;;5102542;28;20303;-69
2022/05/26 10:13:23;;;;;;;11.88;2.00;;;18.10;97.20;;;;;;5090661;28;20035;-69
2022/05/26 10:16:13;;;;;;;15.32;2.63;;;18.30;97.60;;;;;;5090879;28;20234;-73
2022/05/26 10:19:18;;;;;;;7.30;1.75;;;18.50;97.20;;;;;;5083136;28;20016;-73
2022/05/26 10:22:24;;;;;;;10.77;1.98;;;18.60;96.50;;;;;;5083318;28;20031;-73
2022/05/26 10:25:03;;;;;;;11.30;1.95;;;18.50;96.80;;;;;;5073398;28;20104;-70
2022/05/26 10:27:58;;;;;;;9.07;1.60;;;18.40;96.40;;;;;;5102222;28;20039;-71
2022/05/26 10:30:47;;;;;;;12.50;2.15;;;18.30;96.70;;;;;;5097778;28;20031;-71
2022/05/26 10:33:37;;;;;;;11.20;2.00;;;18.20;97.30;;;;;;5102924;28;20299;-70
2022/05/26 10:36:24;;;;;;;10.32;1.90;;;18.40;96.60;;;;;;5102464;28;20024;-70
2022/05/26 10:39:30;;;;;;;14.68;1.88;;;18.50;96.80;;;;;;5104324;28;20039;-72
2022/05/26 10:42:04;;;;;;;8.18;1.27;;;18.50;95.90;;;;;;5059060;28;20047;-72
2022/05/26 10:44:48;;;;;;;13.13;2.08;;;18.60;96.00;;;;;;5100827;28;20091;-72
2022/05/26 10:47:21;;;;;;;13.07;1.60;;;18.60;96.00;;;;;;5102865;28;20048;-71
2022/05/26 10:49:56;;;;;;;16.00;2.38;;;18.40;95.50;;;;;;5102358;28;20303;-72
2022/05/26 10:52:27;;;;;;;8.15;1.45;;;18.30;96.00;;;;;;5101414;28;20012;-72
2022/05/26 10:55:15;;;;;;;10.65;1.90;;;18.40;95.40;;;;;;5100526;28;20012;-71
2022/05/26 10:57:58;;;;;;;14.02;1.50;;;18.60;95.70;;;;;;5069726;28;20301;-70
2022/05/26 11:00:27;;;;;;;9.75;1.55;;;18.60;95.50;;;;;;5084613;28;20056;-70
2022/05/26 11:03:27;;;;;;;8.93;1.42;;;18.60;95.20;;;;;;5101371;28;20024;-70
2022/05/26 11:05:58;;;;;;;13.38;1.05;;;18.60;94.80;;;;;;5100436;28;20024;-71
2022/05/26 11:08:35;;;;;;;6.88;1.00;;;18.50;94.50;;;;;;5096781;28;20039;-72
2022/05/26 11:11:23;;;;;;;7.13;1.30;;;18.60;94.90;;;;;;5097396;28;20024;-70
2022/05/26 11:17:28;;;;;;;15.73;1.50;;;18.70;94.60;;;;;;5089122;28;20047;-69
2022/05/26 11:20:19;;;;;;;7.22;1.70;;;19.00;94.30;;;;;;5102951;28;20133;-71
2022/05/26 11:22:46;;;;;;;6.88;1.60;;;19.20;93.90;;;;;;5090085;28;20031;-71
2022/05/26 11:25:15;;;;;;;16.30;1.30;;;19.10;93.60;;;;;;5099102;28;20023;-68
2022/05/26 11:27:52;;;;;;;5.22;1.10;;;18.90;93.70;;;;;;5111980;28;20024;-70
2022/05/26 11:36:17;;;;;;;6.32;1.33;;;18.60;93.60;;;;;;5092013;28;20203;-71
2022/05/26 11:38:48;;;;;;;2.30;0.77;;;18.60;93.70;;;;;;5092581;28;20359;-72
2022/05/26 11:41:33;;;;;;;8.13;1.30;;;18.70;93.20;;;;;;5095811;28;20031;-70
2022/05/26 11:44:07;;;;;;;8.70;1.27;;;18.80;93.10;;;;;;5095326;28;20316;-70
2022/05/26 11:46:56;;;;;;;6.40;1.00;;;18.80;93.10;;;;;;5084944;28;20023;-72
2022/05/26 11:50:01;;;;;;;7.60;1.15;;;18.70;93.30;;;;;;5089002;28;20638;-72
2022/05/26 11:53:02;;;;;;;10.10;2.13;;;18.60;93.40;;;;;;5087267;28;20040;-70
2022/05/26 11:55:49;;;;;;;5.97;0.93;;;18.90;93.40;;;;;;5086905;28;20303;-73
2022/05/26 11:58:37;;;;;;;4.97;0.88;;;19.10;93.20;;;;;;5081350;28;20020;-72
2022/05/26 12:01:38;;;;;;;4.38;1.20;;;19.00;92.60;;;;;;5089248;28;20070;-71
2022/05/26 12:04:36;;;;;;;12.50;1.30;;;18.70;93.20;;;;;;5097904;28;20024;-69
2022/05/26 12:07:24;;;;;;;9.25;1.15;;;18.70;93.80;;;;;;5097484;28;20027;-72
2022/05/26 12:09:57;;;;;;;6.05;1.30;;;18.90;93.70;;;;;;5102277;28;20039;-70
2022/05/26 12:12:33;;;;;;;5.45;1.50;;;19.00;93.70;;;;;;5103225;28;20346;-71
2022/05/26 12:15:07;;;;;;;8.48;1.60;;;19.20;93.40;;;;;;5102698;28;20016;-71
2022/05/26 12:17:55;;;;;;;6.90;1.30;;;19.10;93.40;;;;;;5106462;28;20032;-68
2022/05/26 12:20:33;;;;;;;7.35;1.65;;;19.10;93.60;;;;;;5107671;28;20066;-72
2022/05/26 12:23:18;;;;;;;6.88;1.30;;;19.00;93.60;;;;;;5089321;28;20032;-69
2022/05/26 12:25:46;;;;;;;8.98;1.70;;;18.90;93.40;;;;;;5106124;28;20024;-71
2022/05/26 12:28:28;;;;;;;4.53;1.10;;;18.90;93.50;;;;;;5082498;28;20020;-69
2022/05/26 12:31:08;;;;;;;5.45;1.10;;;18.90;93.30;;;;;;5086723;28;20052;-70
2022/05/26 12:34:02;;;;;;;4.25;0.82;;;18.90;93.60;;;;;;5086794;28;20087;-70
2022/05/26 12:36:56;;;;;;;5.93;1.52;;;18.90;93.00;;;;;;5085201;28;20047;-68
2022/05/26 12:40:02;;;;;;;10.40;1.10;;;18.90;93.20;;;;;;5085148;28;20243;-70
2022/05/26 12:42:43;;;;;;;4.03;1.08;;;18.70;93.50;;;;;;5074601;28;20211;-70
2022/05/26 12:45:35;;;;;;;6.05;1.23;;;18.60;93.70;;;;;;5086188;28;20044;-69
2022/05/26 12:48:20;;;;;;;;;;;18.70;94.00;;;;;;5104514;28;20337;-69
2022/05/26 12:50:46;;;;;;;8.93;1.50;;;18.80;93.50;;;;;;5105399;28;19965;-68
2022/05/26 12:53:32;;;;;;;5.57;0.88;;;19.00;93.50;;;;;;5106346;28;20032;-69
2022/05/26 12:56:04;;;;;;;5.95;0.98;;;18.70;92.30;;;;;;5105806;28;20034;-68
2022/05/26 12:58:45;;;;;;;;;;;18.30;92.50;;;;;;5106664;28;20050;-68
2022/05/26 13:01:13;;;;;;;3.72;1.02;;;18.30;92.90;;;;;;5105926;28;20229;-68
2022/05/26 13:03:43;;;;;;;3.03;0.80;;;18.30;93.00;;;;;;5088486;28;20035;-69
2022/05/26 13:06:15;;;;;;;4.10;0.80;;;18.30;93.00;;;;;;5105218;28;20023;-70
2022/05/26 13:09:12;;;;;;;7.60;1.10;;;18.40;92.80;;;;;;5088654;28;20055;-69
2022/05/26 13:11:59;;;;;;;3.67;1.05;;;18.50;92.70;;;;;;5085642;28;20095;-70
2022/05/26 13:14:46;;;;;;;7.95;1.40;;;18.40;92.70;;;;;;5091847;28;20221;-68
2022/05/26 13:17:15;;;;;;;9.50;1.33;;;18.70;92.80;;;;;;5090750;28;20047;-67
2022/05/26 13:19:44;;;;;;;5.40;1.00;;;18.90;92.80;;;;;;5104807;28;20008;-67
2022/05/26 13:22:13;;;;;;;9.65;1.67;;;19.10;92.60;;;;;;5096155;28;20038;-69
2022/05/26 13:24:50;;;;;;;7.00;1.67;;;19.30;92.10;;;;;;5101242;28;20058;-68
2022/05/26 13:27:16;;;;;;;9.05;1.58;;;19.10;92.90;;;;;;5104959;28;20031;-70
2022/05/26 13:29:46;;;;;;;9.77;1.35;;;19.00;93.30;;;;;;5113837;28;20095;-69
2022/05/26 13:35:03;;;;;;;13.20;2.00;;;19.00;93.00;;;;;;5075718;28;20372;-69
2022/05/26 13:37:31;;;;;;;12.30;2.05;;;18.80;93.30;;;;;;5097636;28;20031;-69
2022/05/26 13:40:19;;;;;;;10.43;1.92;;;18.80;93.40;;;;;;5084403;28;20095;-68
2022/05/26 13:42:48;;;;;;;10.32;2.10;;;18.80;93.00;;;;;;5082212;28;20023;-69
2022/05/26 13:45:22;;;;;;;8.30;1.50;;;18.90;92.70;;;;;;5105443;28;20044;-70
2022/05/26 13:47:48;;;;;;;10.52;1.65;;;18.80;93.00;;;;;;5104135;28;20063;-69
2022/05/26 13:50:14;;;;;;;9.55;1.73;;;18.60;93.50;;;;;;5105392;28;20027;-68
2022/05/26 13:52:41;;;;;;;11.50;2.10;;;18.60;94.10;;;;;;5104691;28;20325;-68
2022/05/26 13:55:24;;;;;;;19.77;2.65;;;18.70;93.90;;;;;;5105340;28;20031;-70